Time;durP1;ratioP1;P1;durP2;ratioP2;P2;SDS_P1;SDS_P2;PMS_P1;PMS_P2;Temp;Humidity;BMP_temperature;BMP_pressure;BME280_temperature;BME280_humidity;BME280_pressure;Samples;Min_cycle;Max_cycle;Signal;HPM_P1;HPM_P2
2023/11/17 00:01:33;;;;;;;12.13;7.30;;;6.60;99.90;;;;;;5027704;28;20024;-76
2023/11/17 00:03:59;;;;;;;15.95;10.02;;;6.60;99.90;;;;;;5028460;28;20066;-75
2023/11/17 00:06:25;;;;;;;15.20;9.68;;;6.60;99.90;;;;;;5027685;28;20113;-76
2023/11/17 00:08:54;;;;;;;14.15;10.13;;;6.60;99.90;;;;;;5014312;28;20057;-76
2023/11/17 00:11:20;;;;;;;14.65;10.20;;;6.60;99.90;;;;;;5027792;28;20028;-76
2023/11/17 00:13:46;;;;;;;14.23;9.43;;;6.60;99.90;;;;;;5028172;28;20102;-75
2023/11/17 00:16:12;;;;;;;18.95;9.23;;;6.60;99.90;;;;;;5027729;28;20451;-76
2023/11/17 00:18:38;;;;;;;18.55;9.48;;;6.50;99.90;;;;;;5009808;28;20029;-76
2023/11/17 00:21:06;;;;;;;21.17;10.20;;;6.50;99.90;;;;;;5019191;28;20018;-76
2023/11/17 00:23:32;;;;;;;15.70;9.70;;;6.50;99.90;;;;;;5022045;28;20014;-76
2023/11/17 00:25:57;;;;;;;18.17;9.98;;;6.50;99.90;;;;;;4996793;28;20017;-76
2023/11/17 00:28:24;;;;;;;17.88;10.05;;;6.50;99.90;;;;;;5027646;28;20083;-76
2023/11/17 00:30:50;;;;;;;13.27;10.15;;;6.50;99.90;;;;;;5026806;28;20056;-76
2023/11/17 00:33:17;;;;;;;15.52;10.27;;;6.50;99.90;;;;;;5027720;28;20040;-76
2023/11/17 00:35:46;;;;;;;15.75;10.63;;;6.40;99.90;;;;;;5027215;28;20104;-76
2023/11/17 00:38:13;;;;;;;15.95;9.70;;;6.40;99.90;;;;;;5027578;28;20033;-76
2023/11/17 00:40:41;;;;;;;16.20;10.38;;;6.40;99.90;;;;;;5027156;28;20017;-76
2023/11/17 00:43:09;;;;;;;18.63;10.82;;;6.40;99.90;;;;;;5027342;28;20150;-76
2023/11/17 00:45:34;;;;;;;16.30;10.32;;;6.40;99.90;;;;;;5027069;28;20412;-76
2023/11/17 00:48:00;;;;;;;16.08;10.50;;;6.40;99.90;;;;;;5027746;28;20060;-76
2023/11/17 00:50:26;;;;;;;17.50;10.15;;;6.40;99.90;;;;;;5026842;28;20509;-76
2023/11/17 00:52:52;;;;;;;17.63;10.30;;;6.30;99.90;;;;;;5027079;28;20068;-76
2023/11/17 00:55:18;;;;;;;16.90;11.30;;;6.30;99.90;;;;;;5009206;28;20519;-76
2023/11/17 00:57:44;;;;;;;15.35;10.30;;;6.30;99.90;;;;;;5020764;28;20061;-76
2023/11/17 01:00:11;;;;;;;16.38;10.25;;;6.30;99.90;;;;;;5026595;28;20056;-76
2023/11/17 01:02:38;;;;;;;19.67;11.25;;;6.30;99.90;;;;;;5026886;28;20116;-76
2023/11/17 01:05:07;;;;;;;15.98;10.63;;;6.30;99.90;;;;;;5026648;28;20029;-76
2023/11/17 01:07:34;;;;;;;16.95;10.50;;;6.30;99.90;;;;;;5026713;28;20040;-76
2023/11/17 01:10:00;;;;;;;15.88;10.98;;;6.30;99.90;;;;;;5026679;28;20112;-76
2023/11/17 01:12:25;;;;;;;18.65;10.77;;;6.30;99.90;;;;;;5026802;28;20100;-77
2023/11/17 01:14:51;;;;;;;22.17;11.02;;;6.20;99.90;;;;;;5026718;28;20079;-76
2023/11/17 01:17:17;;;;;;;19.55;10.82;;;6.20;99.90;;;;;;5009011;28;20055;-76
2023/11/17 01:19:45;;;;;;;18.63;11.18;;;6.20;99.90;;;;;;5009003;28;20116;-76
2023/11/17 01:22:11;;;;;;;16.75;10.50;;;6.20;99.90;;;;;;5026579;28;20033;-76
2023/11/17 01:24:37;;;;;;;19.00;11.40;;;6.20;99.90;;;;;;5008923;28;20514;-76
2023/11/17 01:27:04;;;;;;;20.02;10.95;;;6.20;99.90;;;;;;5026672;28;20025;-76
2023/11/17 01:29:33;;;;;;;20.63;11.75;;;6.20;99.90;;;;;;5026759;28;20033;-76
2023/11/17 01:31:59;;;;;;;16.02;10.90;;;6.20;99.90;;;;;;5026496;28;20434;-76
2023/11/17 01:34:27;;;;;;;21.05;11.38;;;6.20;99.90;;;;;;5027110;28;20028;-76
2023/11/17 01:36:53;;;;;;;18.60;11.15;;;6.20;99.90;;;;;;5026663;28;20105;-76
2023/11/17 01:39:20;;;;;;;17.35;10.55;;;6.20;99.90;;;;;;5027101;28;20030;-76
2023/11/17 01:41:47;;;;;;;14.13;10.32;;;6.10;99.90;;;;;;5031510;28;20021;-76
2023/11/17 01:44:13;;;;;;;17.02;10.68;;;6.20;99.90;;;;;;5033155;28;20038;-76
2023/11/17 01:46:39;;;;;;;15.18;10.70;;;6.10;99.90;;;;;;5033058;28;20024;-76
2023/11/17 01:49:05;;;;;;;14.80;10.10;;;6.10;99.90;;;;;;5033431;28;20025;-76
2023/11/17 01:51:32;;;;;;;17.40;10.57;;;6.10;99.90;;;;;;5032952;28;20030;-76
2023/11/17 01:53:58;;;;;;;14.93;10.85;;;6.10;99.90;;;;;;5015815;28;20064;-76
2023/11/17 01:56:25;;;;;;;16.10;10.77;;;6.10;99.90;;;;;;5032609;28;20029;-75
2023/11/17 01:58:51;;;;;;;15.30;10.00;;;6.10;99.90;;;;;;5026718;28;20526;-76
2023/11/17 02:01:16;;;;;;;15.02;10.15;;;6.10;99.90;;;;;;5032464;28;20112;-76
2023/11/17 02:03:43;;;;;;;14.55;9.88;;;6.10;99.90;;;;;;5033322;28;20025;-76
2023/11/17 02:06:45;;;;;;;17.17;11.23;;;6.00;99.90;;;;;;5032793;28;20079;-76
2023/11/17 02:09:53;;;;;;;18.90;11.10;;;6.00;99.90;;;;;;5022031;28;20483;-75
2023/11/17 02:12:59;;;;;;;19.50;11.30;;;6.00;99.90;;;;;;4938554;28;20592;-76
2023/11/17 02:15:29;;;;;;;20.85;12.50;;;6.00;99.90;;;;;;5013059;28;20024;-76
2023/11/17 02:18:04;;;;;;;17.90;12.40;;;6.00;99.90;;;;;;5033320;28;20044;-76
2023/11/17 02:20:34;;;;;;;18.20;12.13;;;6.00;99.90;;;;;;5030037;28;20033;-76
2023/11/17 02:23:15;;;;;;;15.85;11.40;;;6.00;99.90;;;;;;5032976;28;20017;-76
2023/11/17 02:25:59;;;;;;;23.27;12.98;;;6.00;99.90;;;;;;5032555;28;20071;-76
2023/11/17 02:28:34;;;;;;;18.45;12.05;;;6.00;99.90;;;;;;5032796;28;20021;-76
2023/11/17 02:31:12;;;;;;;21.55;12.30;;;6.00;99.90;;;;;;5018988;28;20009;-76
2023/11/17 02:33:42;;;;;;;21.23;11.85;;;6.00;99.90;;;;;;5032875;28;20021;-76
2023/11/17 02:36:16;;;;;;;15.63;11.00;;;5.90;99.90;;;;;;5019186;28;20027;-76
2023/11/17 02:39:12;;;;;;;15.10;10.32;;;6.00;99.90;;;;;;5032554;28;20378;-76
2023/11/17 02:41:42;;;;;;;17.02;10.57;;;5.90;99.90;;;;;;5022263;28;20029;-76
2023/11/17 02:44:15;;;;;;;16.92;10.20;;;5.90;99.90;;;;;;5032647;28;20514;-76
2023/11/17 02:46:44;;;;;;;17.80;11.35;;;5.80;99.90;;;;;;5023122;28;20083;-76
2023/11/17 02:49:28;;;;;;;22.60;11.05;;;5.80;99.90;;;;;;5028612;28;20063;-76
2023/11/17 02:51:55;;;;;;;22.98;11.27;;;5.90;99.90;;;;;;5031335;28;20132;-76
2023/11/17 02:54:25;;;;;;;33.22;12.05;;;5.80;99.90;;;;;;5029446;28;20032;-75
2023/11/17 02:56:51;;;;;;;51.58;11.57;;;5.80;99.90;;;;;;5028142;28;20032;-76
2023/11/17 02:59:18;;;;;;;92.43;13.48;;;5.80;99.90;;;;;;5024550;28;20065;-76
2023/11/17 03:01:45;;;;;;;18.67;11.02;;;5.70;99.90;;;;;;5011294;28;20056;-76
2023/11/17 03:04:15;;;;;;;50.85;11.70;;;5.70;99.90;;;;;;5029457;28;20014;-76
2023/11/17 03:06:46;;;;;;;24.85;11.02;;;5.80;99.90;;;;;;5025077;28;20607;-76
2023/11/17 03:09:22;;;;;;;24.73;10.68;;;5.80;99.90;;;;;;5029642;28;20033;-76
2023/11/17 03:11:54;;;;;;;31.58;11.98;;;5.80;99.90;;;;;;5028963;28;20036;-76
2023/11/17 03:14:24;;;;;;;30.02;11.70;;;5.80;99.90;;;;;;5011650;28;20063;-76
2023/11/17 03:17:00;;;;;;;21.98;11.63;;;5.80;99.90;;;;;;5010875;28;20108;-75
2023/11/17 03:19:30;;;;;;;46.85;12.70;;;5.80;99.90;;;;;;5029062;28;20029;-76
2023/11/17 03:21:57;;;;;;;39.72;12.27;;;5.80;99.90;;;;;;5029017;28;20022;-76
2023/11/17 03:24:24;;;;;;;54.63;13.38;;;5.80;99.90;;;;;;5029088;28;20025;-76
2023/11/17 03:26:52;;;;;;;24.92;12.80;;;5.90;99.90;;;;;;5028716;28;20834;-76
2023/11/17 03:29:19;;;;;;;65.20;13.40;;;5.90;99.90;;;;;;5015629;28;20029;-76
2023/11/17 03:31:49;;;;;;;23.85;12.02;;;5.90;99.90;;;;;;5028867;28;20033;-76
2023/11/17 03:34:29;;;;;;;114.90;12.53;;;5.90;99.90;;;;;;5029147;28;20021;-76
2023/11/17 03:36:56;;;;;;;78.47;12.63;;;5.90;99.90;;;;;;5016026;28;20040;-76
2023/11/17 03:39:26;;;;;;;55.40;12.25;;;5.90;99.90;;;;;;5026342;28;20028;-76
2023/11/17 03:41:52;;;;;;;51.72;12.48;;;5.90;99.90;;;;;;5028801;28;20068;-76
2023/11/17 03:44:18;;;;;;;62.05;12.70;;;5.90;99.90;;;;;;5028650;28;20045;-76
2023/11/17 03:46:48;;;;;;;80.40;13.32;;;5.90;99.90;;;;;;5028251;28;20083;-76
2023/11/17 03:49:15;;;;;;;73.15;13.43;;;5.90;99.90;;;;;;5012505;28;20056;-76
2023/11/17 03:51:42;;;;;;;92.68;13.98;;;5.90;99.90;;;;;;4999078;28;20040;-76
2023/11/17 03:54:09;;;;;;;51.78;11.55;;;5.90;99.90;;;;;;5028561;28;20033;-76
2023/11/17 03:56:35;;;;;;;59.95;13.27;;;5.90;99.90;;;;;;5028191;28;20076;-76
2023/11/17 03:59:03;;;;;;;45.67;11.98;;;5.90;99.90;;;;;;5010647;28;20053;-75
2023/11/17 04:01:33;;;;;;;32.53;11.40;;;5.90;99.90;;;;;;5009933;28;20455;-76
2023/11/17 04:03:59;;;;;;;49.42;11.05;;;5.90;99.90;;;;;;5027239;28;20021;-75
2023/11/17 04:06:25;;;;;;;65.05;11.10;;;5.90;99.90;;;;;;5027715;28;20021;-76
2023/11/17 04:08:52;;;;;;;48.78;12.13;;;5.90;99.90;;;;;;5028200;28;20117;-76
2023/11/17 04:11:18;;;;;;;58.13;11.38;;;5.90;99.90;;;;;;5028273;28;20037;-76
2023/11/17 04:13:45;;;;;;;48.63;10.52;;;5.90;99.90;;;;;;5028180;28;20022;-76
2023/11/17 04:16:11;;;;;;;17.77;10.15;;;5.80;99.90;;;;;;5009991;28;20485;-76
2023/11/17 04:18:39;;;;;;;28.25;10.88;;;5.80;99.90;;;;;;5025704;28;20060;-76
2023/11/17 04:21:05;;;;;;;73.10;12.50;;;5.80;99.90;;;;;;5016428;28;20486;-76
2023/11/17 04:23:31;;;;;;;31.35;9.48;;;5.70;99.90;;;;;;5027270;28;20036;-76
2023/11/17 04:25:57;;;;;;;48.45;11.25;;;5.70;99.90;;;;;;5014336;28;20503;-76
2023/11/17 04:28:23;;;;;;;22.58;12.13;;;5.70;99.90;;;;;;5015313;28;20109;-76
2023/11/17 04:30:49;;;;;;;25.35;11.32;;;5.70;99.90;;;;;;5026323;28;20018;-75
2023/11/17 04:33:14;;;;;;;27.65;12.00;;;5.70;99.90;;;;;;5028229;28;20017;-76
2023/11/17 04:35:40;;;;;;;30.20;11.98;;;5.70;99.90;;;;;;5027914;28;20025;-76
2023/11/17 04:38:06;;;;;;;27.98;12.40;;;5.70;99.90;;;;;;5028174;28;20045;-76
2023/11/17 04:40:33;;;;;;;36.30;12.40;;;5.60;99.90;;;;;;5026612;28;20226;-76
2023/11/17 04:43:00;;;;;;;37.28;13.07;;;5.70;99.90;;;;;;5014356;28;20048;-76
2023/11/17 04:45:26;;;;;;;38.88;13.57;;;5.70;99.90;;;;;;5009585;28;20546;-76
2023/11/17 04:47:52;;;;;;;41.80;12.52;;;5.70;99.90;;;;;;5013367;28;20501;-76
2023/11/17 04:50:18;;;;;;;47.25;12.85;;;5.70;99.90;;;;;;5009386;28;20025;-76
2023/11/17 04:52:44;;;;;;;64.47;13.10;;;5.70;99.90;;;;;;5027239;28;20517;-76
2023/11/17 04:55:13;;;;;;;59.03;12.55;;;5.70;99.90;;;;;;5027693;28;20026;-76
2023/11/17 04:57:41;;;;;;;48.42;13.48;;;5.70;99.90;;;;;;5008912;28;20490;-76
2023/11/17 05:00:13;;;;;;;57.95;12.23;;;5.70;99.90;;;;;;5027304;28;20060;-76
2023/11/17 05:02:41;;;;;;;34.65;12.65;;;5.70;99.90;;;;;;5008765;28;20036;-75
2023/11/17 05:05:11;;;;;;;26.65;11.70;;;5.70;99.90;;;;;;5006320;28;20022;-76
2023/11/17 05:07:44;;;;;;;43.13;12.93;;;5.70;99.90;;;;;;4999064;28;20657;-76
2023/11/17 05:10:20;;;;;;;31.23;13.20;;;5.70;99.90;;;;;;5027189;28;20025;-75
2023/11/17 05:12:48;;;;;;;30.52;12.07;;;5.70;99.90;;;;;;5026993;28;20040;-76
2023/11/17 05:15:14;;;;;;;24.77;13.63;;;5.80;99.90;;;;;;5008709;28;20128;-76
2023/11/17 05:17:43;;;;;;;32.15;13.25;;;5.80;99.90;;;;;;5008922;28;20025;-76
2023/11/17 05:20:13;;;;;;;32.05;10.77;;;5.80;99.90;;;;;;5026811;28;20026;-76
2023/11/17 05:22:43;;;;;;;33.83;13.32;;;5.80;99.90;;;;;;5008889;28;20570;-76
2023/11/17 05:25:09;;;;;;;25.75;13.52;;;5.80;99.90;;;;;;5026876;28;20036;-76
2023/11/17 05:27:36;;;;;;;31.42;14.35;;;5.80;99.90;;;;;;5012696;28;20772;-76
2023/11/17 05:30:06;;;;;;;30.80;13.50;;;5.80;99.90;;;;;;5026838;28;20112;-76
2023/11/17 05:32:32;;;;;;;24.52;12.65;;;5.90;99.90;;;;;;5026659;28;20023;-76
2023/11/17 05:34:58;;;;;;;29.58;14.20;;;5.90;99.90;;;;;;5026961;28;20033;-77
2023/11/17 05:37:24;;;;;;;32.60;13.57;;;5.80;99.90;;;;;;5023468;28;20030;-76
2023/11/17 05:39:50;;;;;;;33.80;14.95;;;5.90;99.90;;;;;;4998085;28;20037;-76
2023/11/17 05:42:16;;;;;;;23.13;12.98;;;5.90;99.90;;;;;;5027009;28;20534;-76
2023/11/17 05:44:42;;;;;;;33.15;13.60;;;6.00;99.90;;;;;;5032865;28;20022;-76
2023/11/17 05:47:08;;;;;;;21.83;12.10;;;5.90;99.90;;;;;;5008668;28;20021;-76
2023/11/17 05:49:41;;;;;;;27.02;14.30;;;5.90;99.90;;;;;;5031344;28;20036;-76
2023/11/17 05:52:08;;;;;;;31.23;14.20;;;6.00;99.90;;;;;;5022459;28;20101;-76
2023/11/17 05:54:39;;;;;;;40.08;13.98;;;6.00;99.90;;;;;;5008711;28;20032;-76
2023/11/17 05:57:05;;;;;;;27.13;13.45;;;6.00;99.90;;;;;;5026125;28;20021;-76
2023/11/17 05:59:31;;;;;;;32.42;12.32;;;6.00;99.90;;;;;;5029544;28;20032;-76
2023/11/17 06:01:59;;;;;;;25.83;13.05;;;6.00;99.90;;;;;;5028388;28;20022;-76
2023/11/17 06:04:28;;;;;;;34.80;13.63;;;6.00;99.90;;;;;;5034624;28;20021;-76
2023/11/17 06:06:53;;;;;;;26.95;14.20;;;6.00;99.90;;;;;;5034536;28;20026;-75
2023/11/17 06:09:19;;;;;;;26.70;14.00;;;6.00;99.90;;;;;;5008801;28;20394;-77
2023/11/17 06:11:45;;;;;;;28.98;13.95;;;6.00;99.90;;;;;;5027560;28;20104;-76
2023/11/17 06:14:11;;;;;;;36.90;14.65;;;6.00;99.90;;;;;;5038772;28;20033;-76
2023/11/17 06:16:38;;;;;;;27.58;13.10;;;6.00;99.90;;;;;;5025823;28;20032;-76
2023/11/17 06:19:03;;;;;;;34.80;14.00;;;6.00;99.90;;;;;;5012437;28;20030;-76
2023/11/17 06:21:29;;;;;;;24.33;12.85;;;6.00;99.90;;;;;;5025649;28;20018;-76
2023/11/17 06:23:55;;;;;;;27.90;14.57;;;6.00;99.90;;;;;;5036208;28;20563;-76
2023/11/17 06:26:22;;;;;;;18.70;12.95;;;6.00;99.90;;;;;;5015793;28;20026;-76
2023/11/17 06:28:48;;;;;;;29.33;11.43;;;6.00;99.90;;;;;;5030973;28;20021;-75
2023/11/17 06:31:14;;;;;;;27.13;14.40;;;6.00;99.90;;;;;;5032538;28;20070;-75
2023/11/17 06:33:43;;;;;;;20.15;13.98;;;6.00;99.90;;;;;;5029958;28;20025;-76
2023/11/17 06:36:11;;;;;;;20.27;12.85;;;6.00;99.90;;;;;;5032993;28;20029;-77
2023/11/17 06:38:36;;;;;;;23.80;13.10;;;6.00;99.90;;;;;;5029640;28;20104;-76
2023/11/17 06:41:03;;;;;;;20.42;13.70;;;6.00;99.90;;;;;;5038472;28;20160;-76
2023/11/17 06:43:29;;;;;;;20.23;14.30;;;6.00;99.90;;;;;;5031362;28;20041;-76
2023/11/17 06:45:55;;;;;;;18.10;13.50;;;6.00;99.90;;;;;;5035296;28;20025;-76
2023/11/17 06:48:21;;;;;;;20.35;12.77;;;6.00;99.90;;;;;;5040240;28;20028;-76
2023/11/17 06:50:50;;;;;;;16.75;12.38;;;5.90;99.90;;;;;;5043599;28;20556;-76
2023/11/17 06:53:18;;;;;;;27.42;13.10;;;6.00;99.90;;;;;;5036716;28;20483;-76
2023/11/17 06:55:43;;;;;;;20.00;12.10;;;6.00;99.90;;;;;;5034687;28;20487;-75
2023/11/17 06:58:09;;;;;;;51.88;14.00;;;5.90;99.90;;;;;;5039517;28;20095;-76
2023/11/17 07:00:34;;;;;;;51.85;14.25;;;5.90;99.90;;;;;;5043982;28;20074;-76
2023/11/17 07:03:00;;;;;;;39.63;13.52;;;5.80;99.90;;;;;;5041770;28;20021;-76
2023/11/17 07:05:27;;;;;;;38.70;13.77;;;5.80;99.90;;;;;;5031020;28;20021;-76
2023/11/17 07:07:53;;;;;;;18.42;10.85;;;5.70;99.90;;;;;;5029818;28;20026;-76
2023/11/17 07:10:20;;;;;;;30.83;13.43;;;5.70;99.90;;;;;;5041752;28;20028;-75
2023/11/17 07:12:45;;;;;;;19.13;12.32;;;5.70;99.90;;;;;;5039466;28;20026;-76
2023/11/17 07:15:13;;;;;;;20.25;13.73;;;5.60;99.90;;;;;;5034779;28;20029;-76
2023/11/17 07:17:42;;;;;;;19.20;13.70;;;5.60;99.90;;;;;;5007821;28;20037;-76
2023/11/17 07:20:11;;;;;;;23.95;14.43;;;5.70;99.90;;;;;;5039106;28;20163;-77
2023/11/17 07:22:41;;;;;;;20.20;13.90;;;5.70;99.90;;;;;;5043641;28;20124;-76
2023/11/17 07:25:07;;;;;;;18.60;13.57;;;5.70;99.90;;;;;;5037585;28;20013;-76
2023/11/17 07:27:33;;;;;;;20.42;14.07;;;5.70;99.90;;;;;;5003721;28;20018;-76
2023/11/17 07:29:59;;;;;;;20.45;14.45;;;5.80;99.90;;;;;;5028628;28;20029;-75
2023/11/17 07:32:25;;;;;;;20.77;13.57;;;5.80;99.90;;;;;;5026294;28;20021;-76
2023/11/17 07:34:51;;;;;;;21.42;13.20;;;5.80;99.90;;;;;;5008653;28;20022;-75
2023/11/17 07:37:17;;;;;;;22.98;13.73;;;5.90;99.90;;;;;;5003911;28;20041;-76
2023/11/17 07:39:43;;;;;;;20.38;14.48;;;5.90;99.90;;;;;;5035680;28;20036;-76
2023/11/17 07:42:09;;;;;;;17.58;11.75;;;5.90;99.90;;;;;;4995394;28;20013;-75
2023/11/17 07:44:38;;;;;;;17.83;12.38;;;5.90;99.90;;;;;;5012323;28;20037;-76
2023/11/17 07:47:04;;;;;;;17.98;12.55;;;6.00;99.90;;;;;;5015063;28;20029;-76
2023/11/17 07:49:30;;;;;;;21.08;14.02;;;6.00;99.90;;;;;;5018825;28;20064;-75
2023/11/17 07:51:57;;;;;;;20.27;14.13;;;6.00;99.90;;;;;;5015858;28;20026;-75
2023/11/17 07:54:23;;;;;;;22.27;13.90;;;6.00;99.90;;;;;;5030092;28;20436;-75
2023/11/17 07:56:50;;;;;;;19.48;13.18;;;6.00;99.90;;;;;;5007377;28;20037;-76
2023/11/17 07:59:19;;;;;;;17.63;12.90;;;6.10;99.90;;;;;;5016425;28;20575;-76
2023/11/17 08:01:45;;;;;;;19.90;13.70;;;6.10;99.90;;;;;;5009575;28;20068;-75
2023/11/17 08:04:11;;;;;;;31.83;14.75;;;6.10;99.90;;;;;;5027994;28;20036;-76
2023/11/17 08:06:38;;;;;;;19.38;13.80;;;6.10;99.90;;;;;;5026045;28;20029;-75
2023/11/17 08:09:04;;;;;;;20.30;13.68;;;6.20;99.90;;;;;;5016160;28;20017;-76
2023/11/17 08:11:30;;;;;;;21.75;14.63;;;6.20;99.90;;;;;;5009848;28;20375;-76
2023/11/17 08:13:57;;;;;;;18.88;13.45;;;6.20;99.90;;;;;;5027801;28;20028;-76
2023/11/17 08:16:23;;;;;;;23.60;15.18;;;6.30;99.90;;;;;;5006642;28;20034;-76
2023/11/17 08:18:53;;;;;;;22.15;15.23;;;6.30;99.90;;;;;;5020836;28;20040;-76
2023/11/17 08:21:18;;;;;;;20.05;13.23;;;6.30;99.90;;;;;;5021073;28;20018;-76
2023/11/17 08:23:44;;;;;;;21.55;13.13;;;6.30;99.90;;;;;;5014951;28;20021;-76
2023/11/17 08:26:14;;;;;;;22.08;14.10;;;6.30;99.90;;;;;;5006257;28;20018;-76
2023/11/17 08:28:40;;;;;;;23.60;15.63;;;6.30;99.90;;;;;;5000157;28;20022;-76
2023/11/17 08:31:06;;;;;;;25.33;14.88;;;6.40;99.90;;;;;;5016494;28;20080;-76
2023/11/17 08:33:32;;;;;;;24.95;14.98;;;6.40;99.90;;;;;;5025778;28;20079;-76
2023/11/17 08:35:58;;;;;;;24.88;15.45;;;6.40;99.90;;;;;;5019405;28;20429;-75
2023/11/17 08:38:25;;;;;;;22.40;15.25;;;6.40;99.90;;;;;;5000347;28;20033;-75
2023/11/17 08:40:55;;;;;;;22.48;15.57;;;6.30;99.90;;;;;;5013245;28;20025;-76
2023/11/17 08:43:21;;;;;;;24.67;16.13;;;6.30;99.90;;;;;;5026649;28;20053;-76
2023/11/17 08:45:51;;;;;;;25.20;14.88;;;6.30;99.90;;;;;;5009578;28;20026;-75
2023/11/17 08:48:17;;;;;;;23.48;15.98;;;6.30;99.90;;;;;;5026823;28;20023;-76
2023/11/17 08:50:42;;;;;;;20.40;13.68;;;6.30;99.90;;;;;;5024221;28;20024;-76
2023/11/17 08:53:09;;;;;;;21.73;15.95;;;6.30;99.90;;;;;;5016628;28;20014;-76
2023/11/17 08:55:35;;;;;;;22.45;16.27;;;6.40;99.90;;;;;;5006261;28;20037;-76
2023/11/17 08:58:01;;;;;;;22.50;15.98;;;6.40;99.90;;;;;;5021907;28;20474;-76
2023/11/17 09:00:29;;;;;;;20.83;14.40;;;6.50;99.90;;;;;;5017295;28;20037;-76
2023/11/17 09:02:55;;;;;;;23.63;17.33;;;6.50;99.90;;;;;;5005899;28;20149;-75
2023/11/17 09:05:22;;;;;;;23.58;15.90;;;6.60;99.90;;;;;;5013682;28;20108;-76
2023/11/17 09:07:51;;;;;;;26.80;17.02;;;6.60;99.90;;;;;;5000498;28;20022;-76
2023/11/17 09:10:20;;;;;;;27.48;17.60;;;6.60;99.90;;;;;;5027299;28;20036;-75
2023/11/17 09:12:47;;;;;;;28.40;17.58;;;6.60;99.90;;;;;;5025133;28;20084;-76
2023/11/17 09:15:23;;;;;;;29.00;17.35;;;6.70;99.90;;;;;;5026410;28;20112;-76
2023/11/17 09:17:52;;;;;;;29.00;18.25;;;6.70;99.90;;;;;;5026335;28;20021;-76
2023/11/17 09:20:21;;;;;;;27.23;18.17;;;6.80;99.90;;;;;;5027453;28;20084;-76
2023/11/17 09:22:47;;;;;;;29.00;17.88;;;6.90;99.90;;;;;;5026608;28;20366;-75
2023/11/17 09:25:15;;;;;;;26.75;16.98;;;7.00;99.90;;;;;;5023264;28;20024;-75
2023/11/17 09:27:48;;;;;;;31.75;19.45;;;7.10;99.90;;;;;;5019972;28;20030;-76
2023/11/17 09:30:15;;;;;;;28.55;19.98;;;7.20;99.90;;;;;;5023492;28;20037;-76
2023/11/17 09:32:49;;;;;;;29.35;18.30;;;7.20;99.90;;;;;;5022922;28;20398;-76
2023/11/17 09:35:15;;;;;;;30.95;20.05;;;7.20;99.90;;;;;;5011141;28;20184;-76
2023/11/17 09:37:49;;;;;;;32.42;21.35;;;7.30;99.90;;;;;;5004660;28;20029;-76
2023/11/17 09:40:20;;;;;;;36.72;22.10;;;7.30;99.90;;;;;;5014184;28;20034;-75
2023/11/17 09:42:49;;;;;;;32.92;22.05;;;7.40;99.90;;;;;;5023082;28;20042;-77
2023/11/17 09:45:21;;;;;;;37.67;20.55;;;7.40;99.90;;;;;;5018680;28;20014;-76
2023/11/17 09:47:57;;;;;;;32.58;21.60;;;7.50;99.90;;;;;;5021286;28;20608;-76
2023/11/17 09:50:29;;;;;;;32.10;21.52;;;7.50;99.90;;;;;;5018321;28;20108;-76
2023/11/17 09:52:57;;;;;;;28.25;21.02;;;7.60;99.90;;;;;;5019296;28;20042;-76
2023/11/17 09:55:27;;;;;;;31.48;20.88;;;7.60;99.90;;;;;;5021146;28;20032;-76
2023/11/17 09:57:55;;;;;;;34.42;21.05;;;7.60;99.90;;;;;;5026049;28;20021;-76
2023/11/17 10:00:27;;;;;;;35.28;21.08;;;7.60;99.90;;;;;;5008449;28;20025;-76
2023/11/17 10:02:59;;;;;;;29.75;20.13;;;7.60;99.90;;;;;;5028864;28;20419;-76
2023/11/17 10:05:28;;;;;;;26.77;17.65;;;7.70;99.90;;;;;;5030281;28;20029;-76
2023/11/17 10:07:55;;;;;;;33.38;20.25;;;7.70;99.90;;;;;;5021044;28;20025;-76
2023/11/17 10:10:22;;;;;;;30.35;19.73;;;7.70;99.90;;;;;;5018477;28;20122;-75
2023/11/17 10:12:50;;;;;;;31.27;20.98;;;7.80;99.90;;;;;;5022421;28;20832;-76
2023/11/17 10:15:25;;;;;;;27.40;19.95;;;7.80;99.90;;;;;;5011815;28;20056;-76
2023/11/17 10:17:59;;;;;;;32.33;20.73;;;7.90;99.90;;;;;;5010216;28;20036;-76
2023/11/17 10:20:26;;;;;;;35.95;20.98;;;8.00;99.90;;;;;;5029765;28;20018;-76
2023/11/17 10:22:54;;;;;;;28.95;19.77;;;8.10;99.90;;;;;;5011508;28;20033;-75
2023/11/17 10:25:24;;;;;;;27.63;19.60;;;8.20;99.90;;;;;;5023339;28;20052;-76
2023/11/17 10:27:50;;;;;;;28.83;19.70;;;8.20;99.90;;;;;;5018822;28;20033;-76
2023/11/17 10:30:25;;;;;;;27.13;18.90;;;8.20;99.90;;;;;;5026379;28;20037;-76
2023/11/17 10:33:24;;;;;;;26.55;18.80;;;8.30;99.90;;;;;;5016903;28;20029;-75
2023/11/17 10:36:13;;;;;;;21.95;16.33;;;8.30;99.90;;;;;;5012194;28;20029;-76
2023/11/17 10:38:45;;;;;;;29.45;18.20;;;8.40;99.90;;;;;;5029466;28;20083;-76
2023/11/17 10:41:33;;;;;;;26.00;18.80;;;8.50;99.90;;;;;;4998350;28;20026;-75
2023/11/17 10:44:03;;;;;;;26.63;19.17;;;8.50;99.90;;;;;;5028692;28;20068;-76
2023/11/17 10:46:39;;;;;;;27.65;18.85;;;8.70;99.90;;;;;;5011601;28;20075;-76
2023/11/17 10:49:05;;;;;;;27.73;18.70;;;8.70;99.90;;;;;;5029444;28;20017;-76
2023/11/17 10:51:32;;;;;;;29.17;19.08;;;8.80;99.90;;;;;;5029314;28;20477;-76
2023/11/17 10:54:08;;;;;;;24.45;16.55;;;9.00;99.90;;;;;;5027727;28;20037;-76
2023/11/17 10:56:36;;;;;;;22.10;14.50;;;9.10;99.90;;;;;;5016116;28;20059;-76
2023/11/17 10:59:03;;;;;;;19.05;13.80;;;9.20;99.90;;;;;;5029149;28;20467;-76
2023/11/17 11:01:35;;;;;;;20.38;14.32;;;9.40;99.90;;;;;;5029177;28;20025;-76
2023/11/17 11:04:09;;;;;;;18.80;13.90;;;9.50;99.90;;;;;;5027971;28;20064;-76
2023/11/17 11:06:38;;;;;;;17.98;12.00;;;9.70;99.90;;;;;;5011144;28;20552;-76
2023/11/17 11:09:06;;;;;;;19.95;13.68;;;9.80;99.90;;;;;;5029139;28;20029;-76
2023/11/17 11:11:32;;;;;;;16.73;12.65;;;10.00;99.90;;;;;;5011044;28;20083;-76
2023/11/17 11:14:00;;;;;;;18.65;12.10;;;10.10;99.90;;;;;;5008513;28;20457;-77
2023/11/17 11:16:35;;;;;;;20.85;13.90;;;10.10;99.90;;;;;;5027626;28;20498;-76
2023/11/17 11:19:02;;;;;;;17.17;12.63;;;10.10;99.90;;;;;;5027206;28;20459;-76
2023/11/17 11:21:29;;;;;;;17.08;11.32;;;10.20;99.90;;;;;;5026065;28;20509;-75
2023/11/17 11:24:00;;;;;;;14.15;10.43;;;10.20;99.90;;;;;;5028020;28;20017;-76
2023/11/17 11:26:30;;;;;;;16.13;10.82;;;10.20;99.90;;;;;;5026657;28;20489;-76
2023/11/17 11:28:58;;;;;;;12.48;10.57;;;10.30;99.90;;;;;;5004996;28;20034;-76
2023/11/17 11:31:25;;;;;;;15.30;10.48;;;10.20;99.90;;;;;;5020873;28;20029;-76
2023/11/17 11:33:51;;;;;;;13.23;8.60;;;10.30;99.90;;;;;;4997224;28;20033;-76
2023/11/17 11:36:18;;;;;;;15.32;9.48;;;10.30;99.90;;;;;;5025677;28;20106;-76
2023/11/17 11:38:47;;;;;;;13.32;9.75;;;10.30;99.90;;;;;;5006293;28;20061;-75
2023/11/17 11:41:15;;;;;;;14.65;8.73;;;10.40;99.90;;;;;;5017465;28;20071;-76
2023/11/17 11:43:57;;;;;;;12.80;6.85;;;10.50;99.90;;;;;;5009663;28;20140;-75
2023/11/17 11:46:28;;;;;;;9.50;6.63;;;10.60;99.90;;;;;;5015559;28;20022;-76
2023/11/17 11:48:57;;;;;;;;;;;10.70;99.90;;;;;;5026206;28;20108;-75
2023/11/17 11:51:26;;;;;;;9.95;7.13;;;10.80;99.90;;;;;;5018029;28;19905;-76
2023/11/17 11:53:57;;;;;;;10.50;6.15;;;10.80;99.90;;;;;;4997653;28;20026;-76
2023/11/17 11:56:54;;;;;;;11.63;7.65;;;11.00;99.90;;;;;;5026626;28;20049;-76
2023/11/17 11:59:20;;;;;;;10.68;6.70;;;11.20;99.90;;;;;;4997095;28;20041;-75
2023/11/17 12:01:47;;;;;;;9.48;6.50;;;11.30;99.90;;;;;;5023875;28;20048;-76
2023/11/17 12:04:13;;;;;;;7.80;5.90;;;11.40;99.90;;;;;;5020626;28;20013;-76
2023/11/17 12:06:44;;;;;;;7.55;5.18;;;11.50;99.90;;;;;;5039595;28;20032;-76
2023/11/17 12:09:16;;;;;;;5.75;4.20;;;11.60;99.90;;;;;;5017946;28;20471;-77
2023/11/17 12:11:47;;;;;;;8.40;5.50;;;11.50;99.90;;;;;;5026769;28;20044;-76
2023/11/17 12:14:16;;;;;;;8.80;5.45;;;11.60;99.90;;;;;;5020374;28;20025;-76
2023/11/17 12:16:54;;;;;;;7.75;5.20;;;11.60;99.90;;;;;;5026067;28;20033;-76
2023/11/17 12:19:22;;;;;;;7.28;5.18;;;11.70;99.90;;;;;;5018151;28;20026;-76
2023/11/17 12:21:48;;;;;;;4.93;3.00;;;11.80;99.90;;;;;;5025582;28;20041;-76
2023/11/17 12:24:18;;;;;;;5.47;2.88;;;11.90;99.90;;;;;;5018744;28;20022;-76
2023/11/17 12:26:44;;;;;;;4.13;2.75;;;12.00;99.90;;;;;;5001596;28;20083;-76
2023/11/17 12:29:19;;;;;;;6.35;2.75;;;12.10;99.90;;;;;;5027171;28;20033;-76
2023/11/17 12:31:51;;;;;;;4.78;2.97;;;12.10;99.90;;;;;;5027422;28;20103;-76
2023/11/17 12:34:17;;;;;;;3.33;2.42;;;12.10;99.90;;;;;;5028073;28;20067;-76
2023/11/17 12:36:45;;;;;;;3.95;2.88;;;12.00;99.90;;;;;;5016344;28;20034;-76
2023/11/17 12:39:15;;;;;;;4.60;2.90;;;11.90;99.90;;;;;;5024698;28;20056;-76
2023/11/17 12:41:43;;;;;;;2.97;2.42;;;11.80;99.90;;;;;;5024914;28;20022;-76
2023/11/17 12:44:16;;;;;;;4.72;3.13;;;11.60;99.90;;;;;;5026157;28;20076;-76
2023/11/17 12:46:43;;;;;;;5.13;3.00;;;11.40;99.90;;;;;;5026906;28;20021;-76